createdAt,value
2018-03-25T00:00:42.191Z,52.86
2018-03-25T00:03:09.109Z,52.71
2018-03-25T00:05:36.068Z,52.55
2018-03-25T00:08:02.984Z,52.75
2018-03-25T00:10:29.903Z,52.71
2018-03-25T00:12:56.839Z,52.76
2018-03-25T00:15:23.767Z,52.87
2018-03-25T00:17:50.706Z,52.82
2018-03-25T00:20:17.628Z,52.65
2018-03-25T00:22:44.584Z,53.12
2018-03-25T00:25:11.512Z,53.02
2018-03-25T00:27:38.457Z,52.81
2018-03-25T00:30:05.386Z,52.56
2018-03-25T00:32:32.308Z,51.86
2018-03-25T00:34:59.226Z,51.97
2018-03-25T00:37:26.147Z,51.69
2018-03-25T00:39:53.068Z,51.87
2018-03-25T00:42:20.030Z,51.48
2018-03-25T00:44:46.947Z,51.92
2018-03-25T00:47:13.868Z,51.82
2018-03-25T00:49:40.785Z,51.77
2018-03-25T00:52:07.706Z,51.49
2018-03-25T00:54:34.649Z,51.86
2018-03-25T00:57:01.567Z,52.23
2018-03-25T00:59:28.488Z,51.88
2018-03-25T01:01:55.407Z,52.24
2018-03-25T01:04:22.332Z,52.19
2018-03-25T01:06:49.247Z,52.51
2018-03-25T01:09:16.172Z,52.28
2018-03-25T01:11:43.097Z,52.18
2018-03-25T01:14:10.017Z,52.53
2018-03-25T01:16:36.982Z,52.26
2018-03-25T01:19:03.880Z,52.18
2018-03-25T01:21:30.867Z,52.36
2018-03-25T01:23:57.793Z,52.16
2018-03-25T01:26:24.712Z,52.20
2018-03-25T01:28:51.638Z,52.10
2018-03-25T01:31:18.566Z,52.59
2018-03-25T01:33:45.486Z,52.68
2018-03-25T01:36:12.412Z,52.62
2018-03-25T01:38:39.347Z,52.41
2018-03-25T01:41:06.266Z,52.38
2018-03-25T01:43:33.188Z,52.03
2018-03-25T01:46:00.105Z,51.94
2018-03-25T01:48:27.058Z,51.87
2018-03-25T01:50:53.974Z,51.92
2018-03-25T01:53:20.964Z,51.74
2018-03-25T01:55:47.881Z,51.71
2018-03-25T01:58:14.806Z,51.83
2018-03-25T02:00:41.753Z,51.87
2018-03-25T02:03:08.693Z,51.55
2018-03-25T02:05:35.618Z,51.47
2018-03-25T02:08:02.553Z,51.62
2018-03-25T02:10:29.480Z,51.60
2018-03-25T02:12:56.537Z,51.96
2018-03-25T02:15:23.451Z,51.95
2018-03-25T02:17:50.353Z,52.10
2018-03-25T02:20:17.274Z,52.08
2018-03-25T02:22:44.254Z,51.85
2018-03-25T02:25:11.174Z,51.96
2018-03-25T02:27:38.089Z,52.17
2018-03-25T02:30:05.088Z,51.84
2018-03-25T02:32:32.060Z,52.19
2018-03-25T02:34:58.942Z,52.05
2018-03-25T02:37:25.866Z,52.10
2018-03-25T02:39:52.776Z,52.44
2018-03-25T02:42:19.702Z,52.32
2018-03-25T02:44:46.616Z,52.60
2018-03-25T02:47:13.567Z,52.10
2018-03-25T02:49:40.480Z,52.39
2018-03-25T02:52:07.396Z,51.86
2018-03-25T02:54:34.321Z,51.89
2018-03-25T02:57:01.246Z,51.55
2018-03-25T02:59:28.172Z,51.73
2018-03-25T03:01:55.096Z,51.58
2018-03-25T03:04:22.019Z,51.54
2018-03-25T03:06:48.935Z,51.50
2018-03-25T03:09:15.854Z,51.52
2018-03-25T03:11:42.765Z,51.63
2018-03-25T03:14:09.716Z,51.64
2018-03-25T03:16:36.631Z,51.52
2018-03-25T03:19:03.548Z,51.26
2018-03-25T03:21:30.468Z,51.16
2018-03-25T03:23:57.389Z,51.04
2018-03-25T03:26:24.315Z,51.43
2018-03-25T03:28:51.232Z,51.82
2018-03-25T03:31:18.185Z,51.75
2018-03-25T03:33:45.102Z,52.16
2018-03-25T03:36:12.018Z,51.68
2018-03-25T03:38:38.947Z,51.75
2018-03-25T03:41:05.870Z,52.09
2018-03-25T03:43:32.782Z,51.83
2018-03-25T03:45:59.694Z,51.95
2018-03-25T03:48:26.641Z,51.85
2018-03-25T03:50:53.556Z,51.79
2018-03-25T03:53:20.464Z,52.05
2018-03-25T03:55:47.396Z,51.93
2018-03-25T03:58:14.313Z,51.58
2018-03-25T04:00:41.283Z,51.79
2018-03-25T04:03:08.200Z,51.86
2018-03-25T04:05:35.132Z,51.56
2018-03-25T04:08:02.050Z,51.52
2018-03-25T04:10:28.971Z,51.70
2018-03-25T04:12:55.899Z,51.46
2018-03-25T04:15:22.813Z,51.38
2018-03-25T04:17:49.753Z,51.06
2018-03-25T04:20:16.669Z,51.45
2018-03-25T04:22:43.582Z,51.30
2018-03-25T04:25:10.498Z,51.40
2018-03-25T04:27:37.418Z,51.19
2018-03-25T04:30:04.383Z,51.31
2018-03-25T04:32:31.296Z,51.16
2018-03-25T04:34:58.215Z,51.19
2018-03-25T04:37:25.143Z,51.35
2018-03-25T04:39:52.058Z,51.57
2018-03-25T04:42:19.007Z,51.01
2018-03-25T04:44:45.924Z,51.51
2018-03-25T04:47:12.843Z,51.37
2018-03-25T04:49:39.770Z,51.12
2018-03-25T04:52:06.683Z,51.46
2018-03-25T04:54:33.629Z,51.25
2018-03-25T04:57:00.546Z,51.48
2018-03-25T04:59:27.468Z,51.34
2018-03-25T05:01:54.403Z,51.37
2018-03-25T05:04:21.318Z,51.25
2018-03-25T05:06:48.253Z,51.13
2018-03-25T05:09:15.175Z,50.66
2018-03-25T05:11:42.097Z,50.73
2018-03-25T05:14:09.009Z,50.45
2018-03-25T05:16:35.949Z,50.26
2018-03-25T05:19:02.871Z,50.56
2018-03-25T05:21:29.798Z,50.66
2018-03-25T05:23:56.743Z,49.88
2018-03-25T05:26:23.664Z,50.01
2018-03-25T05:28:51.865Z,50.14
2018-03-25T05:31:19.018Z,50.05
2018-03-25T05:33:46.017Z,49.98
2018-03-25T05:36:12.930Z,49.10
2018-03-25T05:38:39.851Z,48.63
2018-03-25T05:41:06.773Z,48.16
2018-03-25T05:43:33.699Z,47.70
2018-03-25T05:46:00.673Z,47.11
2018-03-25T05:48:28.244Z,47.18
2018-03-25T05:50:55.151Z,47.19
2018-03-25T05:53:22.081Z,46.74
2018-03-25T05:55:48.992Z,47.20
2018-03-25T05:58:15.910Z,47.54
2018-03-25T06:00:43.060Z,47.88
2018-03-25T06:03:09.976Z,48.28
2018-03-25T06:05:36.889Z,48.13
2018-03-25T06:08:03.805Z,48.32
2018-03-25T06:10:30.756Z,48.63
2018-03-25T06:12:57.659Z,48.76
2018-03-25T06:15:24.574Z,48.91
2018-03-25T06:17:51.510Z,49.10
2018-03-25T06:20:18.421Z,48.71
2018-03-25T06:22:45.336Z,48.80
2018-03-25T06:25:12.323Z,48.71
2018-03-25T06:27:39.258Z,48.38
2018-03-25T06:30:06.216Z,48.29
2018-03-25T06:32:33.129Z,48.13
2018-03-25T06:35:00.058Z,48.20
2018-03-25T06:37:26.981Z,48.64
2018-03-25T06:39:53.895Z,48.49
2018-03-25T06:42:20.816Z,48.35
2018-03-25T06:44:47.802Z,48.30
2018-03-25T06:47:14.699Z,47.83
2018-03-25T06:49:41.616Z,47.76
2018-03-25T06:52:08.546Z,47.53
2018-03-25T06:54:35.462Z,47.57
2018-03-25T06:57:02.379Z,47.60
2018-03-25T06:59:29.318Z,47.50
2018-03-25T07:01:57.598Z,47.61
2018-03-25T07:04:24.516Z,47.35
2018-03-25T07:06:51.436Z,47.15
2018-03-25T07:09:18.351Z,47.26
2018-03-25T07:11:45.270Z,47.15
2018-03-25T07:14:12.194Z,47.12
2018-03-25T07:16:39.113Z,46.92
2018-03-25T07:19:06.057Z,46.72
2018-03-25T07:21:33.006Z,46.74
2018-03-25T07:23:59.889Z,46.78
2018-03-25T07:26:26.806Z,46.83
2018-03-25T07:28:53.722Z,46.60
2018-03-25T07:31:20.637Z,46.48
2018-03-25T07:33:47.566Z,46.65
2018-03-25T07:36:14.486Z,46.61
2018-03-25T07:38:41.415Z,46.42
2018-03-25T07:41:08.333Z,46.28
2018-03-25T07:43:35.309Z,46.30
2018-03-25T07:46:02.169Z,46.14
2018-03-25T07:48:29.150Z,46.15
2018-03-25T07:50:56.063Z,45.96
2018-03-25T07:53:22.981Z,44.39
2018-03-25T07:55:49.894Z,44.66
2018-03-25T07:58:16.815Z,43.91
2018-03-25T08:00:43.730Z,44.14
2018-03-25T08:03:10.647Z,44.19
2018-03-25T08:09:42.824Z,39.37
2018-03-25T08:12:09.793Z,43.31
2018-03-25T08:14:36.723Z,44.81
2018-03-25T08:17:03.654Z,45.06
2018-03-25T08:19:30.579Z,45.22
2018-03-25T08:21:57.500Z,45.27
2018-03-25T08:24:24.439Z,45.30
2018-03-25T08:26:51.369Z,45.43
2018-03-25T08:34:15.560Z,45.81
2018-03-25T08:36:42.530Z,46.03
2018-03-25T08:41:38.759Z,46.14
2018-03-25T08:44:05.679Z,46.25
2018-03-25T08:46:32.626Z,46.27
2018-03-25T08:48:59.526Z,46.42
2018-03-25T08:51:26.487Z,46.43
2018-03-25T08:53:53.405Z,46.40
2018-03-25T08:56:20.326Z,46.02
2018-03-25T08:58:47.245Z,45.61
2018-03-25T09:01:14.230Z,45.62
2018-03-25T09:03:41.160Z,46.42
2018-03-25T09:06:08.086Z,46.84
2018-03-25T09:08:35.014Z,47.51
2018-03-25T09:11:01.938Z,47.94
2018-03-25T09:13:28.891Z,47.51
2018-03-25T09:15:55.828Z,47.14
2018-03-25T09:18:22.754Z,47.28
2018-03-25T09:20:49.681Z,47.29
2018-03-25T09:23:16.613Z,47.34
2018-03-25T09:25:43.589Z,47.82
2018-03-25T09:28:10.511Z,48.05
2018-03-25T09:30:37.457Z,48.23
2018-03-25T09:33:04.392Z,48.33
2018-03-25T09:35:31.324Z,48.25
2018-03-25T09:37:58.255Z,48.22
2018-03-25T09:40:25.190Z,48.02
2018-03-25T09:42:52.134Z,47.85
2018-03-25T09:45:19.073Z,47.70
2018-03-25T09:47:45.989Z,48.05
2018-03-25T09:50:12.925Z,48.03
2018-03-25T09:52:39.862Z,48.15
2018-03-25T09:55:06.766Z,48.18
2018-03-25T09:57:33.697Z,48.20
2018-03-25T10:00:00.627Z,48.23
2018-03-25T10:02:27.556Z,48.39
2018-03-25T10:04:54.479Z,48.50
2018-03-25T10:07:21.409Z,48.55
2018-03-25T10:09:48.332Z,48.44
2018-03-25T10:12:15.269Z,48.37
2018-03-25T10:14:42.201Z,48.39
2018-03-25T10:17:09.117Z,48.36
2018-03-25T10:19:36.057Z,48.39
2018-03-25T10:22:02.985Z,48.56
2018-03-25T10:24:29.916Z,48.50
2018-03-25T10:26:56.851Z,48.47
2018-03-25T10:29:23.781Z,48.55
2018-03-25T10:31:54.066Z,48.44
2018-03-25T10:34:21.011Z,48.58
2018-03-25T10:36:47.985Z,48.42
2018-03-25T10:39:14.905Z,48.46
2018-03-25T10:41:41.850Z,48.46
2018-03-25T10:44:08.777Z,48.46
2018-03-25T10:46:35.701Z,48.44
2018-03-25T10:49:02.631Z,48.48
2018-03-25T10:51:29.552Z,48.48
2018-03-25T10:53:56.505Z,48.39
2018-03-25T10:56:23.431Z,48.48
2018-03-25T10:58:50.364Z,48.61
2018-03-25T11:01:17.346Z,48.72
2018-03-25T11:03:44.290Z,48.79
2018-03-25T11:06:11.276Z,48.95
2018-03-25T11:08:38.216Z,49.10
2018-03-25T11:11:05.140Z,49.17
2018-03-25T11:13:32.074Z,49.16
2018-03-25T11:15:59.002Z,49.07
2018-03-25T11:18:25.933Z,49.26
2018-03-25T11:20:54.469Z,49.31
2018-03-25T11:23:20.008Z,49.48
2018-03-25T11:25:46.942Z,49.54
2018-03-25T11:28:13.890Z,49.60
2018-03-25T11:30:40.835Z,49.55
2018-03-25T11:33:07.766Z,49.45
2018-03-25T11:35:34.752Z,49.68
2018-03-25T11:38:01.685Z,49.80
2018-03-25T11:40:28.618Z,49.80
2018-03-25T11:42:55.549Z,49.83
2018-03-25T11:45:22.474Z,49.86
2018-03-25T11:47:49.548Z,50.02
2018-03-25T11:50:16.488Z,50.03
2018-03-25T11:52:43.440Z,50.23
2018-03-25T11:55:10.862Z,50.25
2018-03-25T11:57:38.848Z,50.26
2018-03-25T12:00:05.868Z,50.30
2018-03-25T12:02:32.799Z,50.29
2018-03-25T12:04:59.731Z,50.49
2018-03-25T12:07:26.657Z,50.66
2018-03-25T12:09:53.579Z,50.74
2018-03-25T12:12:20.510Z,50.81
2018-03-25T12:14:47.433Z,50.80
2018-03-25T12:17:14.369Z,50.77
2018-03-25T12:19:41.306Z,50.96
2018-03-25T12:22:08.240Z,50.86
2018-03-25T12:24:35.167Z,50.90
2018-03-25T12:27:02.101Z,50.96
2018-03-25T12:29:29.065Z,50.76
2018-03-25T12:31:55.997Z,50.77
2018-03-25T12:34:22.926Z,50.67
2018-03-25T12:36:49.873Z,50.72
2018-03-25T12:39:16.795Z,50.71
2018-03-25T12:41:43.720Z,50.70
2018-03-25T12:44:10.653Z,50.67
2018-03-25T12:49:09.590Z,50.99
2018-03-25T12:56:36.201Z,51.39
2018-03-25T12:59:03.149Z,51.70
2018-03-25T13:01:32.924Z,51.89
2018-03-25T13:03:59.852Z,52.00
2018-03-25T13:11:30.720Z,52.20
2018-03-25T13:13:57.697Z,52.23
2018-03-25T13:16:24.622Z,52.45
2018-03-25T13:21:18.526Z,52.24
2018-03-25T13:23:45.458Z,52.29
2018-03-25T13:26:12.458Z,52.44
2018-03-25T13:28:39.404Z,52.52
2018-03-25T13:33:35.654Z,52.67
2018-03-25T13:36:02.609Z,52.66
2018-03-25T13:38:29.530Z,52.66
2018-03-25T13:40:56.458Z,52.46
2018-03-25T13:43:23.387Z,52.33
2018-03-25T13:45:50.310Z,52.28
2018-03-25T13:48:17.253Z,52.12
2018-03-25T13:50:44.177Z,52.07
2018-03-25T13:53:11.101Z,52.01
2018-03-25T13:55:38.052Z,52.00
2018-03-25T13:58:04.991Z,52.02
2018-03-25T14:00:31.918Z,51.99
2018-03-25T14:02:58.855Z,51.91
2018-03-25T14:05:25.789Z,51.79
2018-03-25T14:07:52.737Z,51.81
2018-03-25T14:10:20.063Z,52.18
2018-03-25T14:12:47.055Z,52.48
2018-03-25T14:15:14.000Z,52.94
2018-03-25T14:17:40.956Z,53.40
2018-03-25T14:20:07.938Z,53.60
2018-03-25T14:22:34.888Z,54.04
2018-03-25T14:25:01.900Z,54.33
2018-03-25T14:27:28.786Z,54.57
2018-03-25T14:29:55.850Z,54.72
2018-03-25T14:32:22.721Z,55.31
2018-03-25T14:34:49.654Z,54.78
2018-03-25T14:39:51.444Z,54.78
2018-03-25T14:47:19.266Z,55.11
2018-03-25T14:49:46.251Z,55.30
2018-03-25T14:54:42.453Z,55.41
2018-03-25T14:57:09.388Z,55.48
2018-03-25T15:02:05.615Z,55.67
2018-03-25T15:04:32.545Z,55.57
2018-03-25T15:06:59.477Z,55.63
2018-03-25T15:09:29.378Z,55.70
2018-03-25T15:14:25.661Z,55.48
2018-03-25T15:24:29.724Z,55.07
2018-03-25T15:32:04.554Z,55.34
2018-03-25T15:34:31.478Z,55.48
2018-03-25T15:36:58.434Z,55.72
2018-03-25T15:39:25.385Z,55.10
2018-03-25T15:41:52.304Z,54.91
2018-03-25T15:44:19.244Z,54.98
2018-03-25T15:46:46.188Z,54.98
2018-03-25T15:49:13.122Z,55.06
2018-03-25T15:51:40.082Z,55.10
2018-03-25T15:54:07.052Z,55.20
2018-03-25T15:56:33.992Z,55.25
2018-03-25T15:59:00.917Z,55.42
2018-03-25T16:01:27.858Z,55.44
2018-03-25T16:03:54.800Z,55.60
2018-03-25T16:06:21.821Z,55.72
2018-03-25T16:08:48.773Z,55.82
2018-03-25T16:11:15.766Z,56.03
2018-03-25T16:13:42.681Z,56.16
2018-03-25T16:16:09.612Z,56.21
2018-03-25T16:18:36.577Z,56.41
2018-03-25T16:21:03.523Z,56.35
2018-03-25T16:23:30.483Z,56.91
2018-03-25T16:25:57.420Z,57.15
2018-03-25T16:28:24.351Z,57.26
2018-03-25T16:30:51.279Z,57.21
2018-03-25T16:33:18.221Z,57.04
2018-03-25T16:35:45.170Z,57.17
2018-03-25T16:38:12.098Z,57.02
2018-03-25T16:40:39.017Z,57.05
2018-03-25T16:43:05.943Z,57.49
2018-03-25T16:45:32.866Z,57.32
2018-03-25T16:47:59.811Z,57.24
2018-03-25T16:50:26.736Z,57.16
2018-03-25T16:52:53.694Z,56.84
2018-03-25T16:55:20.623Z,56.46
2018-03-25T16:57:47.546Z,56.13
2018-03-25T17:00:14.478Z,55.92
2018-03-25T17:02:41.412Z,55.74
2018-03-25T17:05:08.340Z,55.78
2018-03-25T17:07:35.427Z,55.65
2018-03-25T17:10:02.364Z,55.52
2018-03-25T17:12:29.340Z,55.46
2018-03-25T17:14:56.235Z,55.28
2018-03-25T17:17:23.161Z,55.15
2018-03-25T17:19:50.094Z,55.04
2018-03-25T17:22:17.018Z,54.97
2018-03-25T17:24:46.415Z,54.80
2018-03-25T17:27:13.352Z,54.71
2018-03-25T17:29:40.273Z,54.67
2018-03-25T17:32:07.212Z,54.70
2018-03-25T17:34:34.131Z,54.52
2018-03-25T17:37:01.090Z,54.43
2018-03-25T17:39:28.013Z,54.36
2018-03-25T17:41:54.991Z,54.29
2018-03-25T17:44:21.893Z,54.31
2018-03-25T17:46:48.816Z,54.36
2018-03-25T17:49:15.756Z,54.24
2018-03-25T17:51:42.719Z,54.12
2018-03-25T17:54:09.604Z,54.05
2018-03-25T17:56:36.538Z,53.99
2018-03-25T17:59:03.473Z,53.99
2018-03-25T18:01:30.416Z,54.08
2018-03-25T18:03:57.355Z,54.01
2018-03-25T18:06:24.273Z,54.01
2018-03-25T18:08:51.202Z,53.97
2018-03-25T18:11:18.127Z,53.89
2018-03-25T18:13:45.064Z,53.83
2018-03-25T18:16:11.984Z,53.82
2018-03-25T18:18:38.964Z,53.78
2018-03-25T18:21:05.925Z,53.77
2018-03-25T18:23:32.818Z,53.68
2018-03-25T18:25:59.768Z,53.65
2018-03-25T18:28:26.675Z,53.53
2018-03-25T18:30:53.635Z,53.41
2018-03-25T18:33:20.554Z,53.34
2018-03-25T18:38:16.796Z,52.81
2018-03-25T18:40:43.731Z,52.75
2018-03-25T18:43:10.655Z,52.63
2018-03-25T18:45:37.577Z,52.58
2018-03-25T18:48:04.587Z,52.63
2018-03-25T18:50:31.453Z,52.78
2018-03-25T18:52:58.380Z,52.81
2018-03-25T18:55:25.325Z,52.90
2018-03-25T18:57:55.020Z,52.83
2018-03-25T19:00:21.974Z,52.82
2018-03-25T19:02:48.974Z,52.87
2018-03-25T19:05:15.960Z,53.08
2018-03-25T19:07:42.902Z,53.41
2018-03-25T19:10:09.829Z,53.55
2018-03-25T19:12:36.775Z,53.65
2018-03-25T19:15:03.711Z,53.80
2018-03-25T19:17:30.690Z,53.94
2018-03-25T19:19:57.614Z,54.07
2018-03-25T19:22:24.542Z,54.18
2018-03-25T19:24:51.464Z,54.17
2018-03-25T19:27:18.394Z,54.21
2018-03-25T19:29:45.327Z,54.15
2018-03-25T19:32:12.290Z,54.31
2018-03-25T19:34:39.177Z,54.26
2018-03-25T19:37:06.107Z,54.32
2018-03-25T19:39:33.065Z,54.41
2018-03-25T19:42:00.024Z,54.57
2018-03-25T19:44:26.970Z,54.55
2018-03-25T19:46:53.897Z,54.63
2018-03-25T19:49:20.822Z,54.58
2018-03-25T19:51:47.749Z,54.60
2018-03-25T19:54:14.710Z,54.66
2018-03-25T19:56:41.637Z,54.55
2018-03-25T19:59:08.556Z,54.51
2018-03-25T20:01:35.503Z,54.59
2018-03-25T20:04:02.443Z,54.55
2018-03-25T20:06:29.361Z,54.63
2018-03-25T20:08:56.293Z,54.70
2018-03-25T20:11:23.216Z,53.97
2018-03-25T20:13:50.143Z,54.12
2018-03-25T20:16:17.069Z,53.92
2018-03-25T20:18:44.036Z,54.06
2018-03-25T20:21:10.969Z,54.10
2018-03-25T20:23:37.901Z,54.06
2018-03-25T20:26:04.834Z,53.83
2018-03-25T20:28:31.756Z,53.79
2018-03-25T20:30:58.684Z,53.71
2018-03-25T20:33:25.607Z,53.69
2018-03-25T20:35:52.550Z,53.65
2018-03-25T20:38:19.477Z,53.61
2018-03-25T20:40:46.435Z,53.48
2018-03-25T20:43:13.324Z,53.41
2018-03-25T20:45:40.245Z,53.40
2018-03-25T20:48:07.195Z,53.34
2018-03-25T20:50:34.118Z,53.32
2018-03-25T20:53:01.045Z,53.34
2018-03-25T20:55:27.975Z,53.19
2018-03-25T20:57:54.901Z,53.17
2018-03-25T21:00:22.113Z,53.01
2018-03-25T21:02:49.076Z,52.99
2018-03-25T21:05:16.020Z,52.96
2018-03-25T21:07:42.948Z,52.84
2018-03-25T21:10:09.870Z,52.85
2018-03-25T21:12:36.826Z,52.81
2018-03-25T21:15:03.750Z,52.81
2018-03-25T21:17:30.703Z,52.81
2018-03-25T21:19:57.624Z,52.82
2018-03-25T21:22:24.557Z,52.80
2018-03-25T21:24:51.486Z,52.84
2018-03-25T21:27:18.404Z,52.78
2018-03-25T21:29:45.338Z,52.75
2018-03-25T21:32:12.261Z,52.75
2018-03-25T21:34:39.185Z,52.76
2018-03-25T21:37:06.262Z,52.76
2018-03-25T21:39:33.184Z,52.72
2018-03-25T21:42:00.110Z,52.73
2018-03-25T21:44:27.043Z,52.67
2018-03-25T21:46:53.987Z,52.64
2018-03-25T21:49:20.917Z,52.60
2018-03-25T21:51:47.898Z,52.53
2018-03-25T21:54:14.788Z,52.52
2018-03-25T21:56:41.698Z,52.45
2018-03-25T21:59:08.619Z,52.41
2018-03-25T22:01:35.540Z,52.37
2018-03-25T22:04:02.457Z,52.33
2018-03-25T22:06:29.387Z,52.27
2018-03-25T22:08:56.308Z,52.22
2018-03-25T22:11:23.245Z,52.16
2018-03-25T22:13:50.163Z,52.11
2018-03-25T22:16:17.121Z,52.02
2018-03-25T22:18:44.044Z,51.99
2018-03-25T22:21:10.969Z,51.91
2018-03-25T22:23:37.901Z,51.88
2018-03-25T22:26:04.819Z,51.84
2018-03-25T22:28:31.760Z,51.83
2018-03-25T22:30:58.680Z,51.80
2018-03-25T22:33:25.608Z,51.74
2018-03-25T22:35:52.530Z,51.69
2018-03-25T22:38:19.457Z,51.71
2018-03-25T22:40:46.380Z,51.66
2018-03-25T22:43:13.306Z,51.62
2018-03-25T22:45:40.230Z,51.62
2018-03-25T22:48:07.196Z,51.59
2018-03-25T22:50:34.125Z,51.54
2018-03-25T22:53:01.046Z,51.54
2018-03-25T22:55:27.978Z,51.50
2018-03-25T22:57:54.921Z,51.46
2018-03-25T23:00:21.977Z,51.37
2018-03-25T23:02:48.901Z,51.32
2018-03-25T23:05:15.826Z,51.29
2018-03-25T23:07:42.750Z,51.29
2018-03-25T23:10:09.668Z,51.26
2018-03-25T23:12:36.588Z,51.23
2018-03-25T23:15:03.508Z,51.20
2018-03-25T23:17:30.447Z,51.16
2018-03-25T23:19:57.365Z,51.11
2018-03-25T23:22:24.314Z,51.08
2018-03-25T23:24:51.236Z,51.03
2018-03-25T23:27:18.157Z,51.00
2018-03-25T23:29:45.091Z,50.95
2018-03-25T23:32:12.018Z,50.96
2018-03-25T23:34:38.940Z,50.88
2018-03-25T23:37:05.875Z,50.80
2018-03-25T23:39:32.795Z,50.75
2018-03-25T23:41:59.753Z,50.72
2018-03-25T23:44:26.673Z,50.75
2018-03-25T23:46:53.601Z,50.68
2018-03-25T23:49:20.529Z,50.63
2018-03-25T23:51:47.452Z,50.59
2018-03-25T23:54:14.385Z,50.46
2018-03-25T23:56:41.304Z,50.39
2018-03-25T23:59:08.224Z,50.33
